Logan, UT

8:15 PM MST on February 07, 2016 (GMT -0700)
Adams Elem School | | Change Station
CLOSE
Current Station
Personal Weather Station
Location: Logan, UT
Elevation: 4596 ft
Nearby Weather Stations

Elev 4596 ft 41.74 °N, 111.82 °W | Updated 3 seconds ago

Fog
Fog
29.1 °F
Feels Like 29 °F
N
1.1
Wind Variable Wind from NE
Gusts 1.1 mph

Today
High -- | Low -- °F
--% Chance of Precip.
Yesterday
High -- | Low -- °F
Precip. -- in
Pressure 30.64 in
Visibility 0.5 miles
Clouds
Windchill 29 °F
Dew Point 24 °F
Humidity 82%
Rainfall 0.15 in
Snow Depth Not available.
7:33 AM 5:50 PM
Waning Crescent, 0% visible
SPECI KLGU 080256Z AUTO 00000KT 1/2SM FZFG VV010 M09/M10 A3064 RMK AO2 I1000 T10891100
Pressure 30.64 in
Visibility 0.5 miles
Clouds
Windchill 29 °F
Dew Point 24 °F
Humidity 82%
Rainfall 0.15 in
Snow Depth Not available.
7:33 AM 5:50 PM
Waning Crescent, 0% visible
SPECI KLGU 080256Z AUTO 00000KT 1/2SM FZFG VV010 M09/M10 A3064 RMK AO2 I1000 T10891100

10-Day Weather Forecast

Almanac

Astronomy

Feb. 07, 2016 Rise Set
Actual Time
Civil Twilight
Nautical Twilight
Astronomical Twilight
Moon
Length of Visible Light
Length of Day
Tomorrow will be .
, % of the Moon is Illuminated

Today's Extremes

State Highs State Lows

Community

WunderPhotos

Upload Photos

1,891,375 photos uploaded!

WunderBlog® & News

Nearby

Air Quality

  Air Quality AQ Index Pollutant
Not available.

Snow Depth

Station Depth Elevation

Earthquake Activity

City Distance Mag. Time & Date
Minimum magnitude displayed is 2.5.

Coastal Water Temperatures

Place Temperature

Stations

Nearby Weather Stations

Station Location Temp. Windchill Dew Point Humidity Wind Precip. Elev Updated Type
                   

Watches & Warnings

There are currently no watches in effect.